< Typhoon 198517 1985 Season Typhoon 198519 >
Typhoon 198518 (WINONA)
General InformationTrack Information on Google MapsDetailed Wind InformationList of All Images || Disaster Info.ResourceGoogle EarthGE AnimationAtom FeedGeoJSON
Detalied Best Track (Time Zone = UTC)
Year Month Day Hour Lat. Long. Pressure (hPa) Wind (kt) Class Image Chart
1985 9 18 18 15.8 115.5 1006 0 2 Image Chart
1985 9 19 00 16.0 115.0 1006 0 2 Image Chart
1985 9 19 06 16.3 114.5 1004 0 2 Image Chart
1985 9 19 12 16.7 114.0 1004 0 2 Image Chart
1985 9 19 18 17.0 113.5 1002 0 2 Image Chart
1985 9 20 00 17.3 112.8 1000 0 2 Image Chart
1985 9 20 06 17.8 112.3 1000 0 2 Image Chart
1985 9 20 12 18.2 111.9 998 35 3 Image Chart
1985 9 20 18 18.7 111.8 996 40 3 Image Chart
1985 9 21 00 19.3 111.7 990 45 3 Image Chart
1985 9 21 06 19.9 111.6 990 45 3 Image Chart
1985 9 21 12 20.5 111.4 990 45 3 Image Chart
1985 9 21 18 20.9 111.0 990 45 3 Image Chart
1985 9 22 00 21.3 110.4 994 40 3 Image Chart
1985 9 22 06 21.7 110.0 1000 0 2 Image Chart
1985 9 22 12 22.1 109.9 1004 0 2 Image Chart
1985 9 22 18 22.5 110.0 1004 0 2 Image Chart
1985 9 23 00 22.8 110.5 1004 0 2 Image Chart
1985 9 23 06 23.1 111.7 1008 0 2 Image Chart
1985 9 23 12 23.7 113.2 1008 0 2 Image Chart
1985 9 23 18 24.2 114.7 1010 0 2 Image Chart
1985 9 24 00 24.7 116.5 1012 0 6 Image Chart
Japan Meteorological Agency Best Track Data | Correction Date : 1992-10-21
< Typhoon 198517 1985 Season Typhoon 198519 >

Help